Time,TemperatureF,DewpointF,PressureIn,WindDirection,WindDirectionDegrees,WindSpeedMPH,WindSpeedGustMPH,Humidity,HourlyPrecipIn,Conditions,Clouds,dailyrainin,SolarRadiationWatts/m^2,SoftwareType,DateUTC
2013-03-15 00:03:00,49.3,28.8,29.89,West,273,4.0,8.0,45,0.00,,,0.00,0,Wunderground v.1.15,2013-03-15 06:03:00,
2013-03-15 00:09:00,49.4,27.8,29.89,South,172,6.0,8.0,43,0.00,,,0.00,0,Wunderground v.1.15,2013-03-15 06:09:00,
2013-03-15 00:15:00,47.8,26.9,29.89,SSW,192,1.0,5.0,44,0.00,,,0.00,0,Wunderground v.1.15,2013-03-15 06:15:00,
2013-03-15 00:20:00,46.4,26.7,29.88,South,188,3.0,3.0,46,0.00,,,0.00,0,Wunderground v.1.15,2013-03-15 06:20:00,
2013-03-15 00:26:00,45.2,26.1,29.88,SSW,202,0.0,6.0,47,0.00,,,0.00,0,Wunderground v.1.15,2013-03-15 06:26:00,
2013-03-15 00:31:00,44.6,26.6,29.88,SSW,202,0.0,2.0,49,0.00,,,0.00,0,Wunderground v.1.15,2013-03-15 06:31:00,
2013-03-15 00:36:00,43.5,26.1,29.89,SSW,200,0.0,2.0,50,0.00,,,0.00,0,Wunderground v.1.15,2013-03-15 06:36:00,
2013-03-15 00:42:00,42.6,26.2,29.89,SSW,202,0.0,0.0,52,0.00,,,0.00,0,Wunderground v.1.15,2013-03-15 06:42:00,
2013-03-15 00:47:00,41.9,26.0,29.89,SSW,202,0.0,2.0,53,0.00,,,0.00,0,Wunderground v.1.15,2013-03-15 06:47:00,
2013-03-15 00:52:00,41.4,26.0,29.89,SSW,201,0.0,0.0,54,0.00,,,0.00,0,Wunderground v.1.15,2013-03-15 06:52:00,
2013-03-15 00:58:00,40.5,26.4,29.89,SSW,202,0.0,0.0,57,0.00,,,0.00,0,Wunderground v.1.15,2013-03-15 06:58:00,
2013-03-15 01:03:00,40.1,26.1,29.90,SSW,202,0.0,0.0,57,0.00,,,0.00,0,Wunderground v.1.15,2013-03-15 07:03:00,
2013-03-15 01:09:00,39.5,26.8,29.90,SSW,202,0.0,0.0,60,0.00,,,0.00,0,Wunderground v.1.15,2013-03-15 07:09:00,
2013-03-15 01:15:00,38.9,25.8,29.90,SSW,200,0.0,1.0,59,0.00,,,0.00,0,Wunderground v.1.15,2013-03-15 07:15:00,
2013-03-15 01:21:00,38.8,26.1,29.90,SSW,202,2.0,2.0,60,0.00,,,0.00,0,Wunderground v.1.15,2013-03-15 07:21:00,
2013-03-15 01:27:00,38.7,26.0,29.90,SSW,200,0.0,2.0,60,0.00,,,0.00,0,Wunderground v.1.15,2013-03-15 07:27:00,
2013-03-15 01:32:00,38.6,25.9,29.90,SSW,202,0.0,0.0,60,0.00,,,0.00,0,Wunderground v.1.15,2013-03-15 07:32:00,
2013-03-15 01:37:00,38.0,25.7,29.89,SSW,200,0.0,0.0,61,0.00,,,0.00,0,Wunderground v.1.15,2013-03-15 07:37:00,
2013-03-15 01:43:00,37.8,25.9,29.89,SSW,202,0.0,0.0,62,0.00,,,0.00,0,Wunderground v.1.15,2013-03-15 07:43:00,
2013-03-15 01:48:00,37.4,26.3,29.88,SSW,202,0.0,0.0,64,0.00,,,0.00,0,Wunderground v.1.15,2013-03-15 07:48:00,
2013-03-15 01:54:00,37.1,26.4,29.88,SSW,200,0.0,0.0,65,0.00,,,0.00,0,Wunderground v.1.15,2013-03-15 07:54:00,
2013-03-15 01:59:00,37.0,26.3,29.88,SSW,202,0.0,0.0,65,0.00,,,0.00,0,Wunderground v.1.15,2013-03-15 07:59:00,
2013-03-15 02:04:00,36.9,26.2,29.87,SW,231,4.0,5.0,65,0.00,,,0.00,0,Wunderground v.1.15,2013-03-15 08:04:00,
2013-03-15 02:09:00,37.3,26.6,29.87,SW,232,0.0,5.0,65,0.00,,,0.00,0,Wunderground v.1.15,2013-03-15 08:09:00,
2013-03-15 02:14:00,37.7,27.4,29.87,SW,232,0.0,1.0,66,0.00,,,0.00,0,Wunderground v.1.15,2013-03-15 08:14:00,
2013-03-15 02:19:00,37.7,27.4,29.86,SW,232,0.0,1.0,66,0.00,,,0.00,0,Wunderground v.1.15,2013-03-15 08:19:00,
2013-03-15 02:24:00,37.6,26.9,29.86,SW,232,0.0,2.0,65,0.00,,,0.00,0,Wunderground v.1.15,2013-03-15 08:24:00,
2013-03-15 02:29:00,37.7,27.0,29.86,NNW,328,0.0,4.0,65,0.00,,,0.00,0,Wunderground v.1.15,2013-03-15 08:29:00,
2013-03-15 02:34:00,37.7,27.0,29.87,NNW,328,0.0,1.0,65,0.00,,,0.00,0,Wunderground v.1.15,2013-03-15 08:34:00,
2013-03-15 02:39:00,37.7,28.1,29.87,North,5,2.0,4.0,68,0.00,,,0.00,0,Wunderground v.1.15,2013-03-15 08:39:00,
2013-03-15 02:44:00,37.3,27.3,29.87,East,86,0.0,4.0,67,0.00,,,0.00,0,Wunderground v.1.15,2013-03-15 08:44:00,
2013-03-15 02:49:00,37.1,27.2,29.87,East,82,0.0,4.0,67,0.00,,,0.00,0,Wunderground v.1.15,2013-03-15 08:49:00,
2013-03-15 02:54:00,37.2,27.2,29.87,East,82,0.0,1.0,67,0.00,,,0.00,0,Wunderground v.1.15,2013-03-15 08:54:00,
2013-03-15 02:59:00,38.0,27.6,29.87,East,90,1.0,4.0,66,0.00,,,0.00,0,Wunderground v.1.15,2013-03-15 08:59:00,
2013-03-15 03:04:00,37.8,27.8,29.87,East,97,0.0,1.0,67,0.00,,,0.00,0,Wunderground v.1.15,2013-03-15 09:04:00,
2013-03-15 03:09:00,37.5,27.5,29.87,ESE,112,2.0,3.0,67,0.00,,,0.00,0,Wunderground v.1.15,2013-03-15 09:09:00,
2013-03-15 03:14:00,37.5,27.9,29.87,ESE,112,0.0,2.0,68,0.00,,,0.00,0,Wunderground v.1.15,2013-03-15 09:14:00,
2013-03-15 03:19:00,37.4,27.8,29.86,ESE,121,4.0,4.0,68,0.00,,,0.00,0,Wunderground v.1.15,2013-03-15 09:19:00,
2013-03-15 03:24:00,37.6,27.6,29.86,WNW,285,4.0,6.0,67,0.00,,,0.00,0,Wunderground v.1.15,2013-03-15 09:24:00,
2013-03-15 03:29:00,37.8,27.8,29.86,SW,227,3.0,6.0,67,0.00,,,0.00,0,Wunderground v.1.15,2013-03-15 09:29:00,
2013-03-15 03:34:00,38.2,27.8,29.87,SSE,159,0.0,6.0,66,0.00,,,0.00,0,Wunderground v.1.15,2013-03-15 09:34:00,
2013-03-15 03:39:00,38.3,27.9,29.87,SSE,159,0.0,6.0,66,0.00,,,0.00,0,Wunderground v.1.15,2013-03-15 09:39:00,
2013-03-15 03:44:00,38.2,28.2,29.87,North,10,0.0,8.0,67,0.00,,,0.00,0,Wunderground v.1.15,2013-03-15 09:44:00,
2013-03-15 03:49:00,38.1,28.5,29.87,North,10,0.0,8.0,68,0.00,,,0.00,0,Wunderground v.1.15,2013-03-15 09:49:00,
2013-03-15 03:54:00,38.0,28.0,29.87,North,360,0.0,3.0,67,0.00,,,0.00,0,Wunderground v.1.15,2013-03-15 09:54:00,
2013-03-15 03:59:00,38.2,28.2,29.87,NW,325,6.0,6.0,67,0.00,,,0.00,0,Wunderground v.1.15,2013-03-15 09:59:00,
2013-03-15 04:04:00,38.2,28.2,29.87,NW,306,2.0,7.0,67,0.00,,,0.00,0,Wunderground v.1.15,2013-03-15 10:04:00,
2013-03-15 04:09:00,38.2,28.2,29.87,NW,306,0.0,7.0,67,0.00,,,0.00,0,Wunderground v.1.15,2013-03-15 10:09:00,
2013-03-15 04:14:00,38.2,28.6,29.87,NW,306,0.0,2.0,68,0.00,,,0.00,0,Wunderground v.1.15,2013-03-15 10:14:00,
2013-03-15 04:19:00,38.2,28.9,29.87,NW,306,0.0,2.0,69,0.00,,,0.00,0,Wunderground v.1.15,2013-03-15 10:19:00,
2013-03-15 04:24:00,38.1,28.5,29.87,NW,306,0.0,0.0,68,0.00,,,0.00,0,Wunderground v.1.15,2013-03-15 10:24:00,
2013-03-15 04:29:00,38.1,28.8,29.87,NW,306,0.0,1.0,69,0.00,,,0.00,0,Wunderground v.1.15,2013-03-15 10:29:00,
2013-03-15 04:34:00,38.3,29.0,29.87,NW,306,0.0,0.0,69,0.00,,,0.00,0,Wunderground v.1.15,2013-03-15 10:34:00,
2013-03-15 04:39:00,38.6,28.9,29.87,NW,306,0.0,0.0,68,0.00,,,0.00,0,Wunderground v.1.15,2013-03-15 10:39:00,
2013-03-15 04:44:00,38.8,29.1,29.87,NW,306,0.0,4.0,68,0.00,,,0.00,0,Wunderground v.1.15,2013-03-15 10:44:00,
2013-03-15 04:49:00,39.3,29.3,29.88,ENE,58,1.0,6.0,67,0.00,,,0.00,0,Wunderground v.1.15,2013-03-15 10:49:00,
2013-03-15 04:54:00,39.7,29.6,29.88,ENE,57,2.0,2.0,67,0.00,,,0.00,0,Wunderground v.1.15,2013-03-15 10:54:00,
2013-03-15 04:59:00,41.1,30.2,29.88,NNE,33,0.0,10.0,65,0.00,,,0.00,0,Wunderground v.1.15,2013-03-15 10:59:00,
2013-03-15 05:04:00,42.1,30.4,29.88,NE,40,3.0,6.0,63,0.00,,,0.00,0,Wunderground v.1.15,2013-03-15 11:04:00,
2013-03-15 05:09:00,42.8,30.3,29.88,NE,54,0.0,6.0,61,0.00,,,0.00,0,Wunderground v.1.15,2013-03-15 11:09:00,
2013-03-15 05:14:00,43.1,30.1,29.88,NE,51,0.0,5.0,60,0.00,,,0.00,0,Wunderground v.1.15,2013-03-15 11:14:00,
2013-03-15 05:19:00,43.1,30.1,29.88,NE,51,0.0,5.0,60,0.00,,,0.00,0,Wunderground v.1.15,2013-03-15 11:19:00,
2013-03-15 05:24:00,42.9,30.0,29.88,NE,51,0.0,1.0,60,0.00,,,0.00,0,Wunderground v.1.15,2013-03-15 11:24:00,
2013-03-15 05:29:00,42.7,29.8,29.88,NE,51,0.0,1.0,60,0.00,,,0.00,0,Wunderground v.1.15,2013-03-15 11:29:00,
2013-03-15 05:34:00,42.5,30.0,29.87,NE,51,0.0,2.0,61,0.00,,,0.00,0,Wunderground v.1.15,2013-03-15 11:34:00,
2013-03-15 05:39:00,42.4,29.9,29.87,NE,51,0.0,2.0,61,0.00,,,0.00,0,Wunderground v.1.15,2013-03-15 11:39:00,
2013-03-15 05:44:00,42.3,29.8,29.87,NE,51,0.0,0.0,61,0.00,,,0.00,0,Wunderground v.1.15,2013-03-15 11:44:00,
2013-03-15 05:49:00,42.1,29.6,29.88,NE,51,0.0,0.0,61,0.00,,,0.00,0,Wunderground v.1.15,2013-03-15 11:49:00,
2013-03-15 05:54:00,41.9,29.4,29.88,NE,51,1.0,2.0,61,0.00,,,0.00,0,Wunderground v.1.15,2013-03-15 11:54:00,
2013-03-15 05:59:00,42.0,29.5,29.88,NE,51,0.0,2.0,61,0.00,,,0.00,0,Wunderground v.1.15,2013-03-15 11:59:00,
2013-03-15 06:04:00,41.9,29.8,29.88,NE,51,1.0,3.0,62,0.00,,,0.00,0,Wunderground v.1.15,2013-03-15 12:04:00,
2013-03-15 06:10:00,41.9,29.8,29.88,NE,51,0.0,0.0,62,0.00,,,0.00,0,Wunderground v.1.15,2013-03-15 12:10:00,
2013-03-15 06:15:00,41.8,29.7,29.88,NE,51,0.0,1.0,62,0.00,,,0.00,0,Wunderground v.1.15,2013-03-15 12:15:00,
2013-03-15 06:20:00,41.5,29.4,29.88,NE,51,0.0,0.0,62,0.00,,,0.00,0,Wunderground v.1.15,2013-03-15 12:20:00,
2013-03-15 06:25:00,41.2,29.5,29.88,NE,51,0.0,0.0,63,0.00,,,0.00,0,Wunderground v.1.15,2013-03-15 12:25:00,
2013-03-15 06:30:00,40.3,28.7,29.88,NE,51,0.0,1.0,63,0.00,,,0.00,0,Wunderground v.1.15,2013-03-15 12:30:00,
2013-03-15 06:35:00,39.7,28.5,29.89,NE,51,2.0,2.0,64,0.00,,,0.00,0,Wunderground v.1.15,2013-03-15 12:35:00,
2013-03-15 06:40:00,39.0,28.2,29.89,NE,51,0.0,1.0,65,0.00,,,0.00,0,Wunderground v.1.15,2013-03-15 12:40:00,
2013-03-15 06:45:00,38.7,28.7,29.89,NE,51,3.0,3.0,67,0.00,,,0.00,0,Wunderground v.1.15,2013-03-15 12:45:00,
2013-03-15 06:50:00,38.3,28.3,29.90,NW,320,0.0,1.0,67,0.00,,,0.00,0,Wunderground v.1.15,2013-03-15 12:50:00,
2013-03-15 06:55:00,38.2,28.9,29.90,NW,319,3.0,3.0,69,0.00,,,0.00,0,Wunderground v.1.15,2013-03-15 12:55:00,
2013-03-15 07:00:00,38.6,29.3,29.90,NW,319,0.0,1.0,69,0.00,,,0.00,0,Wunderground v.1.15,2013-03-15 13:00:00,
2013-03-15 07:05:00,38.8,29.5,29.91,NW,320,0.0,2.0,69,0.00,,,0.00,0,Wunderground v.1.15,2013-03-15 13:05:00,
2013-03-15 07:10:00,38.8,29.5,29.91,NNW,327,0.0,0.0,69,0.00,,,0.00,0,Wunderground v.1.15,2013-03-15 13:10:00,
2013-03-15 07:15:00,38.5,29.2,29.91,NNE,22,2.0,6.0,69,0.00,,,0.00,0,Wunderground v.1.15,2013-03-15 13:15:00,
2013-03-15 07:20:00,38.8,29.8,29.91,NNE,22,0.0,2.0,70,0.00,,,0.00,0,Wunderground v.1.15,2013-03-15 13:20:00,
2013-03-15 07:25:00,39.0,29.7,29.91,North,9,4.0,5.0,69,0.00,,,0.00,0,Wunderground v.1.15,2013-03-15 13:25:00,
2013-03-15 07:30:00,39.2,29.9,29.91,North,9,3.0,3.0,69,0.00,,,0.00,0,Wunderground v.1.15,2013-03-15 13:30:00,
2013-03-15 07:35:00,39.5,30.2,29.92,North,9,3.0,4.0,69,0.00,,,0.00,0,Wunderground v.1.15,2013-03-15 13:35:00,
2013-03-15 07:40:00,39.6,29.9,29.92,North,9,0.0,1.0,68,0.00,,,0.00,0,Wunderground v.1.15,2013-03-15 13:40:00,
2013-03-15 07:45:00,39.6,29.9,29.92,North,9,0.0,1.0,68,0.00,,,0.00,0,Wunderground v.1.15,2013-03-15 13:45:00,
2013-03-15 07:50:00,39.4,30.1,29.92,North,9,0.0,0.0,69,0.00,,,0.00,0,Wunderground v.1.15,2013-03-15 13:50:00,
2013-03-15 07:55:00,39.1,30.1,29.92,North,9,3.0,4.0,70,0.00,,,0.00,0,Wunderground v.1.15,2013-03-15 13:55:00,
2013-03-15 08:00:00,39.1,30.1,29.92,North,5,4.0,4.0,70,0.00,,,0.00,0,Wunderground v.1.15,2013-03-15 14:00:00,
2013-03-15 08:05:00,39.3,30.0,29.93,North,360,0.0,5.0,69,0.00,,,0.00,0,Wunderground v.1.15,2013-03-15 14:05:00,
2013-03-15 08:10:00,39.4,30.1,29.93,North,360,0.0,1.0,69,0.00,,,0.00,0,Wunderground v.1.15,2013-03-15 14:10:00,
2013-03-15 08:15:00,39.6,30.3,29.93,North,360,0.0,2.0,69,0.00,,,0.00,0,Wunderground v.1.15,2013-03-15 14:15:00,
2013-03-15 08:20:00,39.8,30.5,29.93,NNE,15,0.0,0.0,69,0.00,,,0.00,5,Wunderground v.1.15,2013-03-15 14:20:00,
2013-03-15 08:25:00,40.0,30.6,29.93,NNE,14,0.0,1.0,69,0.00,,,0.00,7,Wunderground v.1.15,2013-03-15 14:25:00,
2013-03-15 08:30:00,40.1,30.4,29.93,NNE,14,0.0,0.0,68,0.00,,,0.00,7,Wunderground v.1.15,2013-03-15 14:30:00,
2013-03-15 08:35:00,40.3,30.6,29.93,NNE,15,0.0,1.0,68,0.00,,,0.00,9,Wunderground v.1.15,2013-03-15 14:35:00,
2013-03-15 08:40:00,40.3,30.9,29.93,NNE,15,0.0,2.0,69,0.00,,,0.00,11,Wunderground v.1.15,2013-03-15 14:40:00,
2013-03-15 08:45:00,40.5,30.8,29.93,NNE,14,0.0,3.0,68,0.00,,,0.00,16,Wunderground v.1.15,2013-03-15 14:45:00,
2013-03-15 08:50:00,40.6,30.9,29.93,NNE,14,0.0,1.0,68,0.00,,,0.00,28,Wunderground v.1.15,2013-03-15 14:50:00,
2013-03-15 08:55:00,40.7,31.0,29.93,NNE,18,0.0,4.0,68,0.00,,,0.00,42,Wunderground v.1.15,2013-03-15 14:55:00,
2013-03-15 09:00:00,40.9,31.1,29.93,NNE,18,3.0,4.0,68,0.00,,,0.00,40,Wunderground v.1.15,2013-03-15 15:00:00,
2013-03-15 09:05:00,41.0,31.6,29.93,NNE,18,0.0,4.0,69,0.00,,,0.00,67,Wunderground v.1.15,2013-03-15 15:05:00,
2013-03-15 09:10:00,41.2,31.4,29.93,NNE,18,0.0,2.0,68,0.00,,,0.00,67,Wunderground v.1.15,2013-03-15 15:10:00,
2013-03-15 09:15:00,41.4,31.6,29.93,NNE,18,0.0,2.0,68,0.00,,,0.00,90,Wunderground v.1.15,2013-03-15 15:15:00,
2013-03-15 09:20:00,41.8,32.0,29.93,NNE,18,0.0,3.0,68,0.00,,,0.00,86,Wunderground v.1.15,2013-03-15 15:20:00,
2013-03-15 09:25:00,42.2,32.4,29.93,NNE,18,0.0,3.0,68,0.00,,,0.00,153,Wunderground v.1.15,2013-03-15 15:25:00,
2013-03-15 09:30:00,42.8,32.6,29.93,NNE,18,0.0,0.0,67,0.00,,,0.00,102,Wunderground v.1.15,2013-03-15 15:30:00,
2013-03-15 09:35:00,43.3,33.1,29.93,NNE,18,0.0,3.0,67,0.00,,,0.00,265,Wunderground v.1.15,2013-03-15 15:35:00,
2013-03-15 09:40:00,43.7,32.7,29.93,NNE,18,0.0,1.0,65,0.00,,,0.00,121,Wunderground v.1.15,2013-03-15 15:40:00,
2013-03-15 09:45:00,43.8,32.8,29.93,NNE,17,2.0,5.0,65,0.00,,,0.00,327,Wunderground v.1.15,2013-03-15 15:45:00,
2013-03-15 09:50:00,44.1,33.5,29.93,NNE,17,0.0,1.0,66,0.00,,,0.00,418,Wunderground v.1.15,2013-03-15 15:50:00,
2013-03-15 09:55:00,44.7,33.6,29.93,NNE,17,0.0,2.0,65,0.00,,,0.00,396,Wunderground v.1.15,2013-03-15 15:55:00,
2013-03-15 10:00:00,45.9,34.4,29.93,North,360,5.0,6.0,64,0.00,,,0.00,441,Wunderground v.1.15,2013-03-15 16:00:00,
2013-03-15 10:05:00,46.9,34.1,29.92,NW,306,7.0,12.0,61,0.00,,,0.00,429,Wunderground v.1.15,2013-03-15 16:05:00,
2013-03-15 10:11:00,48.0,34.3,29.92,NW,314,9.0,9.0,59,0.00,,,0.00,429,Wunderground v.1.15,2013-03-15 16:11:00,
2013-03-15 10:16:00,48.5,34.4,29.92,NNW,331,9.0,15.0,58,0.00,,,0.00,450,Wunderground v.1.15,2013-03-15 16:16:00,
2013-03-15 10:21:00,48.4,34.3,29.92,WNW,298,15.0,18.0,58,0.00,,,0.00,466,Wunderground v.1.15,2013-03-15 16:21:00,
2013-03-15 10:26:00,48.7,34.1,29.92,WNW,298,9.0,18.0,57,0.00,,,0.00,468,Wunderground v.1.15,2013-03-15 16:26:00,
2013-03-15 10:31:00,48.9,34.3,29.92,WNW,300,12.0,15.0,57,0.00,,,0.00,489,Wunderground v.1.15,2013-03-15 16:31:00,
2013-03-15 10:36:00,48.9,34.3,29.91,NW,322,6.0,15.0,57,0.00,,,0.00,105,Wunderground v.1.15,2013-03-15 16:36:00,
2013-03-15 10:41:00,48.1,34.0,29.91,NW,304,4.0,9.0,58,0.00,,,0.00,95,Wunderground v.1.15,2013-03-15 16:41:00,
2013-03-15 10:46:00,48.5,33.9,29.91,NNW,336,10.0,15.0,57,0.00,,,0.00,559,Wunderground v.1.15,2013-03-15 16:46:00,
2013-03-15 10:51:00,49.1,34.5,29.91,NW,326,12.0,16.0,57,0.00,,,0.00,550,Wunderground v.1.15,2013-03-15 16:51:00,
2013-03-15 10:56:00,48.9,33.4,29.91,NNW,346,9.0,16.0,55,0.00,,,0.00,146,Wunderground v.1.15,2013-03-15 16:56:00,
2013-03-15 11:01:00,48.0,33.5,29.91,NW,319,4.0,11.0,57,0.00,,,0.00,118,Wunderground v.1.15,2013-03-15 17:01:00,
2013-03-15 11:06:00,48.4,34.3,29.91,NNW,329,11.0,13.0,58,0.00,,,0.00,596,Wunderground v.1.15,2013-03-15 17:06:00,
2013-03-15 11:11:00,49.7,34.2,29.91,NW,323,14.0,15.0,55,0.00,,,0.00,636,Wunderground v.1.15,2013-03-15 17:11:00,
2013-03-15 11:16:00,49.9,33.9,29.91,NNW,341,9.0,15.0,54,0.00,,,0.00,635,Wunderground v.1.15,2013-03-15 17:16:00,
2013-03-15 11:21:00,49.7,34.2,29.90,NW,308,7.0,14.0,55,0.00,,,0.00,686,Wunderground v.1.15,2013-03-15 17:21:00,
2013-03-15 11:27:00,50.1,34.1,29.90,NNW,337,9.0,15.0,54,0.00,,,0.00,643,Wunderground v.1.15,2013-03-15 17:27:00,
2013-03-15 11:32:00,50.4,34.4,29.90,North,9,5.0,10.0,54,0.00,,,0.00,571,Wunderground v.1.15,2013-03-15 17:32:00,
2013-03-15 11:37:00,51.0,34.5,29.90,WNW,300,8.0,15.0,53,0.00,,,0.00,596,Wunderground v.1.15,2013-03-15 17:37:00,
2013-03-15 11:42:00,51.0,34.5,29.90,North,360,10.0,16.0,53,0.00,,,0.00,591,Wunderground v.1.15,2013-03-15 17:42:00,
2013-03-15 11:47:00,51.2,34.6,29.90,NW,322,13.0,16.0,53,0.00,,,0.00,652,Wunderground v.1.15,2013-03-15 17:47:00,
2013-03-15 11:52:00,51.6,35.0,29.90,NNW,333,8.0,13.0,53,0.00,,,0.00,628,Wunderground v.1.15,2013-03-15 17:52:00,
2013-03-15 11:57:00,52.0,34.9,29.90,WNW,296,11.0,15.0,52,0.00,,,0.00,640,Wunderground v.1.15,2013-03-15 17:57:00,
2013-03-15 12:02:00,52.0,34.4,29.90,NNW,343,12.0,12.0,51,0.00,,,0.00,659,Wunderground v.1.15,2013-03-15 18:02:00,
2013-03-15 12:07:00,52.5,34.9,29.90,NNW,327,8.0,14.0,51,0.00,,,0.00,636,Wunderground v.1.15,2013-03-15 18:07:00,
2013-03-15 12:12:00,52.8,34.7,29.90,NNW,340,13.0,16.0,50,0.00,,,0.00,645,Wunderground v.1.15,2013-03-15 18:12:00,
2013-03-15 12:17:00,52.8,35.2,29.90,NW,320,11.0,16.0,51,0.00,,,0.00,652,Wunderground v.1.15,2013-03-15 18:17:00,
2013-03-15 12:22:00,52.8,34.7,29.90,North,360,14.0,14.0,50,0.00,,,0.00,652,Wunderground v.1.15,2013-03-15 18:22:00,
2013-03-15 12:28:00,53.2,34.5,29.90,WNW,294,11.0,15.0,49,0.00,,,0.00,619,Wunderground v.1.15,2013-03-15 18:28:00,
2013-03-15 12:33:00,53.6,34.4,29.89,NNW,346,11.0,14.0,48,0.00,,,0.00,657,Wunderground v.1.15,2013-03-15 18:33:00,
2013-03-15 12:38:00,54.0,34.7,29.89,North,9,10.0,16.0,48,0.00,,,0.00,613,Wunderground v.1.15,2013-03-15 18:38:00,
2013-03-15 12:43:00,54.1,34.3,29.89,North,360,5.0,14.0,47,0.00,,,0.00,619,Wunderground v.1.15,2013-03-15 18:43:00,
2013-03-15 12:48:00,54.1,34.3,29.89,North,360,6.0,14.0,47,0.00,,,0.00,403,Wunderground v.1.15,2013-03-15 18:48:00,
2013-03-15 12:53:00,53.7,33.9,29.89,NW,323,9.0,18.0,47,0.00,,,0.00,606,Wunderground v.1.15,2013-03-15 18:53:00,
2013-03-15 12:58:00,54.1,33.8,29.89,NW,311,10.0,18.0,46,0.00,,,0.00,605,Wunderground v.1.15,2013-03-15 18:58:00,
2013-03-15 13:03:00,54.1,33.8,29.89,North,355,15.0,15.0,46,0.00,,,0.00,596,Wunderground v.1.15,2013-03-15 19:03:00,
2013-03-15 13:08:00,54.1,33.2,29.89,North,350,12.0,17.0,45,0.00,,,0.00,587,Wunderground v.1.15,2013-03-15 19:08:00,
2013-03-15 13:13:00,54.4,33.5,29.89,WNW,294,15.0,16.0,45,0.00,,,0.00,629,Wunderground v.1.15,2013-03-15 19:13:00,
2013-03-15 13:18:00,54.1,32.6,29.89,NW,308,14.0,21.0,44,0.00,,,0.00,582,Wunderground v.1.15,2013-03-15 19:18:00,
2013-03-15 13:23:00,54.4,33.5,29.89,North,5,5.0,17.0,45,0.00,,,0.00,587,Wunderground v.1.15,2013-03-15 19:23:00,
2013-03-15 13:29:00,54.2,32.2,29.89,NNW,340,12.0,19.0,43,0.00,,,0.00,241,Wunderground v.1.15,2013-03-15 19:29:00,
2013-03-15 13:34:00,52.4,31.7,29.89,NW,325,11.0,19.0,45,0.00,,,0.00,248,Wunderground v.1.15,2013-03-15 19:34:00,
2013-03-15 13:39:00,53.4,32.6,29.89,NW,325,11.0,21.0,45,0.00,,,0.00,598,Wunderground v.1.15,2013-03-15 19:39:00,
2013-03-15 13:44:00,53.0,31.6,29.89,NW,324,12.0,22.0,44,0.00,,,0.00,230,Wunderground v.1.15,2013-03-15 19:44:00,
2013-03-15 13:49:00,52.3,31.0,29.88,North,360,18.0,22.0,44,0.00,,,0.00,244,Wunderground v.1.15,2013-03-15 19:49:00,
2013-03-15 13:54:00,52.5,31.8,29.88,NNW,331,11.0,19.0,45,0.00,,,0.00,244,Wunderground v.1.15,2013-03-15 19:54:00,
2013-03-15 13:59:00,52.4,31.1,29.88,WNW,286,16.0,21.0,44,0.00,,,0.00,309,Wunderground v.1.15,2013-03-15 19:59:00,
2013-03-15 14:04:00,53.3,31.9,29.88,NNW,341,9.0,21.0,44,0.00,,,0.00,656,Wunderground v.1.15,2013-03-15 20:04:00,
2013-03-15 14:09:00,53.7,31.7,29.88,NNW,348,8.0,23.0,43,0.00,,,0.00,636,Wunderground v.1.15,2013-03-15 20:09:00,
2013-03-15 14:14:00,53.4,31.4,29.88,NNW,344,13.0,19.0,43,0.00,,,0.00,677,Wunderground v.1.15,2013-03-15 20:14:00,
2013-03-15 14:19:00,53.5,32.1,29.88,NNW,328,14.0,27.0,44,0.00,,,0.00,615,Wunderground v.1.15,2013-03-15 20:19:00,
2013-03-15 14:24:00,53.9,31.9,29.88,WNW,286,13.0,21.0,43,0.00,,,0.00,691,Wunderground v.1.15,2013-03-15 20:24:00,
2013-03-15 14:29:00,54.6,31.9,29.88,NNW,337,12.0,22.0,42,0.00,,,0.00,606,Wunderground v.1.15,2013-03-15 20:29:00,
2013-03-15 14:34:00,54.5,31.9,29.88,NNW,345,21.0,23.0,42,0.00,,,0.00,613,Wunderground v.1.15,2013-03-15 20:34:00,
2013-03-15 14:39:00,54.2,31.6,29.88,NNW,348,17.0,23.0,42,0.00,,,0.00,728,Wunderground v.1.15,2013-03-15 20:39:00,
2013-03-15 14:44:00,54.3,32.3,29.88,NNW,344,15.0,22.0,43,0.00,,,0.00,529,Wunderground v.1.15,2013-03-15 20:44:00,
2013-03-15 14:49:00,54.2,32.2,29.87,NNW,333,17.0,22.0,43,0.00,,,0.00,577,Wunderground v.1.15,2013-03-15 20:49:00,
2013-03-15 14:54:00,53.8,31.8,29.87,NNW,336,16.0,22.0,43,0.00,,,0.00,612,Wunderground v.1.15,2013-03-15 20:54:00,
2013-03-15 14:59:00,54.3,32.3,29.87,NNW,329,14.0,22.0,43,0.00,,,0.00,643,Wunderground v.1.15,2013-03-15 20:59:00,
2013-03-15 15:04:00,54.7,32.0,29.87,North,349,8.0,19.0,42,0.00,,,0.00,633,Wunderground v.1.15,2013-03-15 21:04:00,
2013-03-15 15:09:00,54.8,31.5,29.87,NNW,344,13.0,23.0,41,0.00,,,0.00,577,Wunderground v.1.15,2013-03-15 21:09:00,
2013-03-15 15:14:00,54.8,31.5,29.87,North,360,13.0,26.0,41,0.00,,,0.00,622,Wunderground v.1.15,2013-03-15 21:14:00,
2013-03-15 15:19:00,54.1,30.9,29.86,NNW,337,13.0,26.0,41,0.00,,,0.00,541,Wunderground v.1.15,2013-03-15 21:19:00,
2013-03-15 15:24:00,54.3,31.1,29.86,North,355,12.0,25.0,41,0.00,,,0.00,557,Wunderground v.1.15,2013-03-15 21:24:00,
2013-03-15 15:29:00,54.4,30.6,29.86,NNW,340,10.0,25.0,40,0.00,,,0.00,473,Wunderground v.1.15,2013-03-15 21:29:00,
2013-03-15 15:34:00,53.9,30.7,29.86,NNW,344,13.0,24.0,41,0.00,,,0.00,585,Wunderground v.1.15,2013-03-15 21:34:00,
2013-03-15 15:39:00,53.9,30.7,29.86,North,350,16.0,24.0,41,0.00,,,0.00,519,Wunderground v.1.15,2013-03-15 21:39:00,
2013-03-15 15:44:00,53.8,30.6,29.86,North,360,15.0,21.0,41,0.00,,,0.00,459,Wunderground v.1.15,2013-03-15 21:44:00,
2013-03-15 15:49:00,53.5,29.7,29.86,NNW,341,12.0,22.0,40,0.00,,,0.00,490,Wunderground v.1.15,2013-03-15 21:49:00,
2013-03-15 15:54:00,53.8,30.6,29.86,NNW,338,15.0,26.0,41,0.00,,,0.00,420,Wunderground v.1.15,2013-03-15 21:54:00,
2013-03-15 15:59:00,53.4,30.3,29.86,NNW,329,16.0,26.0,41,0.00,,,0.00,385,Wunderground v.1.15,2013-03-15 21:59:00,
2013-03-15 16:04:00,53.5,31.0,29.86,NNW,331,11.0,18.0,42,0.00,,,0.00,353,Wunderground v.1.15,2013-03-15 22:04:00,
2013-03-15 16:09:00,53.1,31.2,29.86,NNW,344,10.0,15.0,43,0.00,,,0.00,411,Wunderground v.1.15,2013-03-15 22:09:00,
2013-03-15 16:14:00,53.5,31.5,29.86,NNE,17,15.0,22.0,43,0.00,,,0.00,373,Wunderground v.1.15,2013-03-15 22:14:00,
2013-03-15 16:19:00,53.3,31.4,29.87,NNW,340,18.0,20.0,43,0.00,,,0.00,450,Wunderground v.1.15,2013-03-15 22:19:00,
2013-03-15 16:24:00,53.2,31.3,29.87,NW,314,12.0,22.0,43,0.00,,,0.00,357,Wunderground v.1.15,2013-03-15 22:24:00,
2013-03-15 16:29:00,53.0,31.1,29.87,NW,319,14.0,14.0,43,0.00,,,0.00,346,Wunderground v.1.15,2013-03-15 22:29:00,
2013-03-15 16:34:00,52.8,30.9,29.87,NW,315,14.0,21.0,43,0.00,,,0.00,392,Wunderground v.1.15,2013-03-15 22:34:00,
2013-03-15 16:39:00,52.7,30.8,29.87,WNW,301,15.0,15.0,43,0.00,,,0.00,387,Wunderground v.1.15,2013-03-15 22:39:00,
2013-03-15 16:44:00,52.9,31.0,29.87,WNW,293,12.0,23.0,43,0.00,,,0.00,330,Wunderground v.1.15,2013-03-15 22:44:00,
2013-03-15 16:49:00,52.3,30.4,29.88,NW,309,16.0,21.0,43,0.00,,,0.00,265,Wunderground v.1.15,2013-03-15 22:49:00,
2013-03-15 16:54:00,51.9,30.6,29.88,North,355,18.0,25.0,44,0.00,,,0.00,364,Wunderground v.1.15,2013-03-15 22:54:00,
2013-03-15 16:59:00,51.9,30.6,29.88,NNW,337,12.0,15.0,44,0.00,,,0.00,325,Wunderground v.1.15,2013-03-15 22:59:00,
2013-03-15 17:04:00,51.2,30.0,29.88,NNW,331,12.0,20.0,44,0.00,,,0.00,283,Wunderground v.1.15,2013-03-15 23:04:00,
2013-03-15 17:09:00,51.3,30.1,29.88,NNW,335,12.0,14.0,44,0.00,,,0.00,353,Wunderground v.1.15,2013-03-15 23:09:00,
2013-03-15 17:14:00,51.3,29.5,29.88,NNW,333,9.0,22.0,43,0.00,,,0.00,279,Wunderground v.1.15,2013-03-15 23:14:00,
2013-03-15 17:19:00,51.4,29.6,29.88,NW,321,12.0,13.0,43,0.00,,,0.00,278,Wunderground v.1.15,2013-03-15 23:19:00,
2013-03-15 17:24:00,51.3,29.5,29.88,North,355,9.0,19.0,43,0.00,,,0.00,276,Wunderground v.1.15,2013-03-15 23:24:00,
2013-03-15 17:29:00,51.0,28.7,29.88,NNW,336,11.0,12.0,42,0.00,,,0.00,174,Wunderground v.1.15,2013-03-15 23:29:00,
2013-03-15 17:34:00,50.8,29.1,29.88,NW,314,8.0,18.0,43,0.00,,,0.00,160,Wunderground v.1.15,2013-03-15 23:34:00,
2013-03-15 17:39:00,50.6,28.9,29.88,WNW,287,10.0,11.0,43,0.00,,,0.00,144,Wunderground v.1.15,2013-03-15 23:39:00,
2013-03-15 17:44:00,50.3,28.6,29.88,WNW,299,10.0,20.0,43,0.00,,,0.00,132,Wunderground v.1.15,2013-03-15 23:44:00,
2013-03-15 17:49:00,50.1,29.0,29.88,NW,306,12.0,12.0,44,0.00,,,0.00,144,Wunderground v.1.15,2013-03-15 23:49:00,
2013-03-15 17:54:00,50.0,28.9,29.88,NW,319,14.0,25.0,44,0.00,,,0.00,137,Wunderground v.1.15,2013-03-15 23:54:00,
2013-03-15 17:59:00,49.9,28.3,29.88,NNW,346,16.0,18.0,43,0.00,,,0.00,120,Wunderground v.1.15,2013-03-15 23:59:00,
2013-03-15 18:04:00,49.6,28.0,29.88,NW,322,12.0,21.0,43,0.00,,,0.00,105,Wunderground v.1.15,2013-03-16 00:04:00,
2013-03-15 18:09:00,49.4,28.4,29.88,NW,325,13.0,14.0,44,0.00,,,0.00,102,Wunderground v.1.15,2013-03-16 00:09:00,
2013-03-15 18:14:00,49.2,28.2,29.88,NNW,338,8.0,19.0,44,0.00,,,0.00,97,Wunderground v.1.15,2013-03-16 00:14:00,
2013-03-15 18:19:00,49.0,28.6,29.88,WNW,285,8.0,11.0,45,0.00,,,0.00,91,Wunderground v.1.15,2013-03-16 00:19:00,
2013-03-15 18:25:00,48.9,29.0,29.88,WNW,296,10.0,17.0,46,0.00,,,0.00,90,Wunderground v.1.15,2013-03-16 00:25:00,
2013-03-15 18:30:00,48.8,29.4,29.88,NW,308,11.0,12.0,47,0.00,,,0.00,102,Wunderground v.1.15,2013-03-16 00:30:00,
2013-03-15 18:35:00,48.6,29.3,29.88,WNW,297,12.0,16.0,47,0.00,,,0.00,62,Wunderground v.1.15,2013-03-16 00:35:00,
2013-03-15 18:40:00,48.2,29.4,29.88,WNW,299,11.0,13.0,48,0.00,,,0.00,58,Wunderground v.1.15,2013-03-16 00:40:00,
2013-03-15 18:45:00,47.7,28.9,29.88,North,350,14.0,18.0,48,0.00,,,0.00,51,Wunderground v.1.15,2013-03-16 00:45:00,
2013-03-15 18:50:00,47.3,29.1,29.89,NNW,337,5.0,10.0,49,0.00,,,0.00,44,Wunderground v.1.15,2013-03-16 00:50:00,
2013-03-15 18:55:00,46.9,29.2,29.89,NNW,328,11.0,15.0,50,0.00,,,0.00,40,Wunderground v.1.15,2013-03-16 00:55:00,
2013-03-15 19:00:00,46.7,29.0,29.89,NW,321,5.0,9.0,50,0.00,,,0.00,39,Wunderground v.1.15,2013-03-16 01:00:00,
2013-03-15 19:05:00,46.5,28.8,29.89,NW,315,3.0,15.0,50,0.00,,,0.00,32,Wunderground v.1.15,2013-03-16 01:05:00,
2013-03-15 19:10:00,46.2,29.1,29.89,NNW,336,10.0,10.0,51,0.00,,,0.00,28,Wunderground v.1.15,2013-03-16 01:10:00,
2013-03-15 19:15:00,45.9,28.8,29.89,WNW,290,8.0,13.0,51,0.00,,,0.00,25,Wunderground v.1.15,2013-03-16 01:15:00,
2013-03-15 19:20:00,45.8,28.7,29.90,NW,304,11.0,13.0,51,0.00,,,0.00,19,Wunderground v.1.15,2013-03-16 01:20:00,
2013-03-15 19:25:00,45.5,28.9,29.90,NW,309,10.0,13.0,52,0.00,,,0.00,14,Wunderground v.1.15,2013-03-16 01:25:00,
2013-03-15 19:30:00,45.3,28.7,29.90,NNW,329,8.0,9.0,52,0.00,,,0.00,11,Wunderground v.1.15,2013-03-16 01:30:00,
2013-03-15 19:35:00,44.9,28.3,29.91,WNW,302,9.0,12.0,52,0.00,,,0.00,5,Wunderground v.1.15,2013-03-16 01:35:00,
2013-03-15 19:40:00,44.7,28.6,29.91,WNW,302,11.0,11.0,53,0.00,,,0.00,0,Wunderground v.1.15,2013-03-16 01:40:00,
2013-03-15 19:45:00,44.5,28.4,29.91,NW,314,6.0,12.0,53,0.00,,,0.00,0,Wunderground v.1.15,2013-03-16 01:45:00,
2013-03-15 19:50:00,44.4,28.3,29.91,NW,306,12.0,16.0,53,0.00,,,0.00,0,Wunderground v.1.15,2013-03-16 01:50:00,
2013-03-15 19:55:00,44.5,28.4,29.91,West,281,13.0,17.0,53,0.00,,,0.00,0,Wunderground v.1.15,2013-03-16 01:55:00,
2013-03-15 20:00:00,44.3,28.2,29.91,NW,317,12.0,15.0,53,0.00,,,0.00,0,Wunderground v.1.15,2013-03-16 02:00:00,
2013-03-15 20:05:00,44.2,28.6,29.91,NW,315,11.0,15.0,54,0.00,,,0.00,0,Wunderground v.1.15,2013-03-16 02:05:00,
2013-03-15 20:10:00,44.1,28.5,29.91,NW,321,9.0,15.0,54,0.00,,,0.00,0,Wunderground v.1.15,2013-03-16 02:10:00,
2013-03-15 20:15:00,44.0,28.4,29.91,NW,323,5.0,15.0,54,0.00,,,0.00,0,Wunderground v.1.15,2013-03-16 02:15:00,
2013-03-15 20:20:00,43.7,28.1,29.91,NNW,340,5.0,10.0,54,0.00,,,0.00,0,Wunderground v.1.15,2013-03-16 02:20:00,
2013-03-15 20:25:00,43.3,28.2,29.91,NW,322,4.0,12.0,55,0.00,,,0.00,0,Wunderground v.1.15,2013-03-16 02:25:00,
2013-03-15 20:30:00,43.1,28.5,29.91,WNW,299,12.0,14.0,56,0.00,,,0.00,0,Wunderground v.1.15,2013-03-16 02:30:00,
2013-03-15 20:35:00,43.6,28.5,29.92,NNW,331,9.0,18.0,55,0.00,,,0.00,0,Wunderground v.1.15,2013-03-16 02:35:00,
2013-03-15 20:40:00,44.0,28.4,29.92,NW,306,11.0,13.0,54,0.00,,,0.00,0,Wunderground v.1.15,2013-03-16 02:40:00,
2013-03-15 20:45:00,43.9,28.3,29.92,West,272,12.0,18.0,54,0.00,,,0.00,0,Wunderground v.1.15,2013-03-16 02:45:00,
2013-03-15 20:50:00,44.0,28.4,29.92,WNW,287,14.0,14.0,54,0.00,,,0.00,0,Wunderground v.1.15,2013-03-16 02:50:00,
2013-03-15 20:55:00,43.7,28.6,29.92,NW,325,13.0,15.0,55,0.00,,,0.00,0,Wunderground v.1.15,2013-03-16 02:55:00,
2013-03-15 21:00:00,43.4,28.3,29.92,WNW,294,11.0,12.0,55,0.00,,,0.00,0,Wunderground v.1.15,2013-03-16 03:00:00,
2013-03-15 21:05:00,43.3,28.6,29.93,NW,320,10.0,13.0,56,0.00,,,0.00,0,Wunderground v.1.15,2013-03-16 03:05:00,
2013-03-15 21:10:00,42.9,28.3,29.93,NNW,338,6.0,9.0,56,0.00,,,0.00,0,Wunderground v.1.15,2013-03-16 03:10:00,
2013-03-15 21:15:00,42.5,28.3,29.93,NNW,334,8.0,9.0,57,0.00,,,0.00,0,Wunderground v.1.15,2013-03-16 03:15:00,
2013-03-15 21:20:00,42.3,28.1,29.93,WNW,300,12.0,12.0,57,0.00,,,0.00,0,Wunderground v.1.15,2013-03-16 03:20:00,
2013-03-15 21:25:00,42.4,28.2,29.93,NW,325,9.0,14.0,57,0.00,,,0.00,0,Wunderground v.1.15,2013-03-16 03:25:00,
2013-03-15 21:30:00,42.5,28.3,29.93,NW,325,9.0,12.0,57,0.00,,,0.00,0,Wunderground v.1.15,2013-03-16 03:30:00,
2013-03-15 21:35:00,42.7,28.1,29.93,NW,304,11.0,20.0,56,0.00,,,0.00,0,Wunderground v.1.15,2013-03-16 03:35:00,
2013-03-15 21:40:00,42.8,28.2,29.93,NW,321,3.0,10.0,56,0.00,,,0.00,0,Wunderground v.1.15,2013-03-16 03:40:00,
2013-03-15 21:45:00,42.5,27.9,29.93,NW,306,10.0,12.0,56,0.00,,,0.00,0,Wunderground v.1.15,2013-03-16 03:45:00,
2013-03-15 21:50:00,42.4,27.8,29.93,NW,314,10.0,11.0,56,0.00,,,0.00,0,Wunderground v.1.15,2013-03-16 03:50:00,
2013-03-15 21:55:00,42.2,28.0,29.93,WNW,294,9.0,11.0,57,0.00,,,0.00,0,Wunderground v.1.15,2013-03-16 03:55:00,
2013-03-15 22:00:00,42.0,27.9,29.93,NW,305,9.0,10.0,57,0.00,,,0.00,0,Wunderground v.1.15,2013-03-16 04:00:00,
2013-03-15 22:05:00,41.9,27.8,29.93,NW,311,4.0,12.0,57,0.00,,,0.00,0,Wunderground v.1.15,2013-03-16 04:05:00,
2013-03-15 22:10:00,41.7,27.6,29.93,WNW,300,9.0,13.0,57,0.00,,,0.00,0,Wunderground v.1.15,2013-03-16 04:10:00,
2013-03-15 22:15:00,41.6,27.5,29.93,NW,311,8.0,13.0,57,0.00,,,0.00,0,Wunderground v.1.15,2013-03-16 04:15:00,
2013-03-15 22:20:00,41.7,27.6,29.94,NW,307,7.0,11.0,57,0.00,,,0.00,0,Wunderground v.1.15,2013-03-16 04:20:00,
2013-03-15 22:25:00,41.9,27.8,29.94,WNW,292,13.0,15.0,57,0.00,,,0.00,0,Wunderground v.1.15,2013-03-16 04:25:00,
2013-03-15 22:30:00,41.8,27.7,29.94,WNW,298,12.0,12.0,57,0.00,,,0.00,0,Wunderground v.1.15,2013-03-16 04:30:00,
2013-03-15 22:35:00,41.5,27.4,29.94,WNW,293,10.0,13.0,57,0.00,,,0.00,0,Wunderground v.1.15,2013-03-16 04:35:00,
2013-03-15 22:40:00,41.3,27.6,29.94,NW,309,8.0,10.0,58,0.00,,,0.00,0,Wunderground v.1.15,2013-03-16 04:40:00,
2013-03-15 22:45:00,41.0,27.8,29.94,NW,321,3.0,11.0,59,0.00,,,0.00,0,Wunderground v.1.15,2013-03-16 04:45:00,
2013-03-15 22:50:00,40.6,27.8,29.94,NW,321,5.0,5.0,60,0.00,,,0.00,0,Wunderground v.1.15,2013-03-16 04:50:00,
2013-03-15 22:55:00,40.3,27.5,29.94,NW,305,5.0,8.0,60,0.00,,,0.00,0,Wunderground v.1.15,2013-03-16 04:55:00,
2013-03-15 23:00:00,40.2,27.8,29.94,NW,311,5.0,5.0,61,0.00,,,0.00,0,Wunderground v.1.15,2013-03-16 05:00:00,
2013-03-15 23:05:00,40.2,27.8,29.94,NW,310,2.0,5.0,61,0.00,,,0.00,0,Wunderground v.1.15,2013-03-16 05:05:00,
2013-03-15 23:10:00,40.1,27.7,29.94,NW,310,0.0,3.0,61,0.00,,,0.00,0,Wunderground v.1.15,2013-03-16 05:10:00,
2013-03-15 23:15:00,40.0,28.0,29.94,NW,309,0.0,3.0,62,0.00,,,0.00,0,Wunderground v.1.15,2013-03-16 05:15:00,
2013-03-15 23:20:00,39.8,28.2,29.94,NW,310,0.0,0.0,63,0.00,,,0.00,0,Wunderground v.1.15,2013-03-16 05:20:00,
2013-03-15 23:25:00,39.5,28.3,29.94,NW,309,0.0,2.0,64,0.00,,,0.00,0,Wunderground v.1.15,2013-03-16 05:25:00,
2013-03-15 23:30:00,39.3,28.5,29.94,NW,310,0.0,0.0,65,0.00,,,0.00,0,Wunderground v.1.15,2013-03-16 05:30:00,
2013-03-15 23:35:00,39.2,28.4,29.94,NW,310,0.0,0.0,65,0.00,,,0.00,0,Wunderground v.1.15,2013-03-16 05:35:00,
2013-03-15 23:40:00,39.1,28.3,29.94,NW,310,2.0,2.0,65,0.00,,,0.00,0,Wunderground v.1.15,2013-03-16 05:40:00,
2013-03-15 23:45:00,39.2,28.4,29.94,NW,318,1.0,5.0,65,0.00,,,0.00,0,Wunderground v.1.15,2013-03-16 05:45:00,
2013-03-15 23:50:00,39.3,28.1,29.94,NW,318,1.0,3.0,64,0.00,,,0.00,0,Wunderground v.1.15,2013-03-16 05:50:00,
2013-03-15 23:55:00,39.2,28.0,29.94,NW,318,0.0,3.0,64,0.00,,,0.00,0,Wunderground v.1.15,2013-03-16 05:55:00,